• Join FlightAware (Why Join?)
  • Login
  • US Flag 
08:25AM EST


 

Airport Tracker/Info


-or-


 

Live Flight TrackerFlight Track Log ✈ N516QS ✈ 08-Jul-2013 ✈ KBUF - KHYA

Flight Track Log - Related Links

Times and Time Zones

All times are in EDT time to prevent confusion due to time zone crossing. See the N516QS flight status page for this flight to view local times or setup timezone preferences in your user account.

Time Position Orientation Groundspeed Altitude Reporting Facility
EDT Latitude Longitude Course Direction KTS MPH feet Rate Location/Type
08:55AM 42.8667 -78.7833 208° Southwest 233 268 4,000  Level Buffalo TRACON
08:56AM 42.8558 -78.7253 104° East 280 322 7,300 3,180 Climbing Cleveland Center
08:57AM 42.8600 -78.6006 87° East 316 364 10,000 2,100 Climbing Cleveland Center
08:59AM 42.9433 -78.3708 64° Northeast 323 372 13,600 1,860 Climbing Cleveland Center
09:00AM 42.9597 -78.2428 80° East 335 386 15,700 2,100 Climbing Cleveland Center
09:01AM 42.9733 -78.1003 83° East 354 407 17,800 1,980 Climbing Cleveland Center
09:02AM 42.9867 -77.9494 83° East 383 441 19,700 1,980 Climbing Cleveland Center
09:03AM 43.0019 -77.7953 82° East 399 459 21,800 2,040 Climbing Cleveland Center
09:04AM 43.0147 -77.6386 84° East 409 471 23,800 1,980 Climbing Cleveland Center
09:06AM 43.0525 -77.2231 83° East 441 507 28,700 1,980 Climbing Boston Center
09:07AM 43.0661 -77.0450 84° East 457 526 30,700 1,800 Climbing Boston Center
09:08AM 43.0817 -76.8614 83° East 478 550 32,700 1,980 Climbing Boston Center
09:09AM 43.1003 -76.6436 83° East 478 550 35,100 2,040 Climbing Boston Center
09:10AM 43.1144 -76.4794 83° East 478 550 36,800 1,800 Climbing Boston Center
09:11AM 43.1292 -76.3011 83° East 478 550 38,800 1,740 Climbing Boston Center
09:12AM 43.1436 -76.1169 84° East 478 550 40,300 1,080 Climbing Boston Center
09:13AM 43.1553 -75.9383 85° East 478 550 41,000 300 Climbing Boston Center
09:14AM 43.1672 -75.7539 85° East 478 550 41,000  Level Boston Center
09:15AM 43.1808 -75.5667 84° East 483 556 41,000  Level Boston Center
09:16AM 43.1897 -75.3819 86° East 483 556 41,000  Level Boston Center
09:17AM 43.2036 -75.1661 85° East 492 566 41,000  Level Boston Center
09:18AM 43.2183 -74.9817 84° East 499 574 41,000  Level Boston Center
09:19AM 43.2325 -74.8025 84° East 493 567 41,000  Level Boston Center
09:20AM 43.2444 -74.6178 85° East 488 562 41,000  Level Boston Center
09:21AM 43.2564 -74.4300 85° East 488 562 41,000  Level Boston Center
09:22AM 43.2678 -74.2392 85° East 488 562 41,000  Level Boston Center
09:23AM 43.2789 -74.0486 85° East 499 574 41,000  Level Boston Center
09:24AM 43.2878 -73.8578 86° East 499 574 41,000  Level Boston Center
09:25AM 43.3000 -73.6897 84° East 499 574 41,000  Level Boston Center
09:26AM 43.3083 -73.4986 87° East 494 568 41,000  Level Boston Center
09:27AM 43.3244 -73.3106 83° East 499 574 41,000  Level Boston Center
09:28AM 43.3342 -73.1167 86° East 499 574 41,000  Level Boston Center
09:29AM 43.3436 -72.9083 86° East 499 574 41,000  Level Boston Center
09:30AM 43.3525 -72.7169 86° East 499 574 41,000  Level Boston Center
09:31AM 43.3592 -72.5228 87° East 499 574 41,000  Level Boston Center
09:32AM 43.3694 -72.3317 86° East 499 574 41,000  Level Boston Center
09:33AM 43.3753 -72.1431 87° East 499 574 41,000  Level Boston Center
09:34AM 43.3831 -71.9486 87° East 499 574 41,000 -600 Level Boston Center
09:35AM 43.3903 -71.7600 87° East 499 574 39,800 -1,500 Descending Boston Center
09:36AM 43.3953 -71.5686 88° East 499 574 38,000 -1,800 Descending Boston Center
09:37AM 43.4042 -71.3828 86° East 488 562 36,200 -1,800 Descending Boston Center
09:38AM 43.4086 -71.1939 88° East 493 567 34,400 -1,920 Descending Boston Center
09:39AM 43.4189 -71.0053 86° East 498 573 32,400 -2,040 Descending Boston Center
09:40AM 43.4225 -70.8136 88° East 498 573 30,400 -2,100 Descending Boston Center
09:41AM 43.3719 -70.6350 111° Southeast 484 557 28,300 -2,100 Descending Boston Center
09:42AM 43.2619 -70.5356 147° Southeast 454 522 26,300 -2,040 Descending Boston Center
09:43AM 43.1425 -70.4908 165° South 425 489 24,300 -1,200 Descending Boston Center
09:44AM 43.0269 -70.4461 164° South 425 489 24,000 -960 Descending Boston Center
09:45AM 42.9094 -70.3992 164° South 435 501 22,400 -2,100 Descending Boston Center
09:46AM 42.8003 -70.3544 163° South 429 494 19,800 -2,580 Descending Boston Center
09:47AM 42.6972 -70.3128 163° South 410 472 17,300 -2,520 Descending Boston Center
09:48AM 42.5964 -70.2711 163° South 392 451 14,800 -2,520 Descending Boston Center
09:49AM 42.4978 -70.2322 164° South 381 438 12,300 -1,920 Descending Boston Center
09:50AM 42.4011 -70.1936 164° South 374 430 11,000 -600 Descending Boston Center
09:51AM 42.3064 -70.1547 163° South 369 425 11,000  Level Boston Center
09:52AM 42.2056 -70.1164 164° South 339 390 11,000  Level Boston Center
09:53AM 42.1258 -70.0831 163° South 323 372 11,000  Level Boston Center
09:54AM 42.0628 -70.0547 162° South 312 359 11,000 -660 Level Boston Center
09:55AM 41.9667 -70.0556 180° South 478 550 9,700 -2,100 Descending Boston Center
09:56AM 41.9028 -70.0831 198° South 382 440 6,800 -2,580 Descending Boston Center
09:57AM 41.8367 -70.1078 196° South 291 335 4,600 -1,980 Descending Boston Center
09:59AM 41.7683 -70.1353 197° South 244 281 2,500 -1,320 Descending Boston Center
10:00AM 41.7336 -70.1756 221° Southwest 201 231 1,800 -780 Descending Boston Center
10:01AM 41.7094 -70.2181 233° Southwest 165 190 1,000 -720 Descending Boston Center
10:02AM 41.6872 -70.2494 227° Southwest 139 160 400 4,980 Descending Boston Center
10:03AM 41.6692 -70.2781 230° Southwest 129 148 11,000 5,280 Climbing Boston Center
10:04AM 41.6467 -70.3119 228° Southwest 112 129 11,000  Level Boston Center
10:05AM 41.6264 -70.3406 227° Southwest 112 129 11,000  Level Boston Center
10:06AM 41.6061 -70.3689 226° Southwest 112 129 11,000  Level Boston Center
10:07AM 41.5858 -70.3972 226° Southwest 112 129 11,000  Level Boston Center
10:08AM 41.5778 -70.4086 227° Southwest 112 129 11,000  Level Boston Center
10:11AM 41.6667 -70.2667 45° Northeast  Level FlightAware Approximate
10:18AM 41.6693 -70.2804 45° Northeast  Level Estimated
10:19AM 41.6693 -70.2804 45° Northeast  Level Estimated